Time;durP1;ratioP1;P1;durP2;ratioP2;P2;SDS_P1;SDS_P2;PMS_P1;PMS_P2;Temp;Humidity;BMP_temperature;BMP_pressure;BME280_temperature;BME280_humidity;BME280_pressure;Samples;Min_cycle;Max_cycle;Signal;HPM_P1;HPM_P2
2023/05/12 00:01:37;;;;;;;9.60;7.73;;;15.30;99.90;;;;;;5021822;28;20588;-74
2023/05/12 00:04:02;;;;;;;10.20;8.33;;;15.30;99.90;;;;;;5016974;28;20255;-74
2023/05/12 00:06:28;;;;;;;9.10;7.77;;;15.30;99.90;;;;;;5016237;28;20661;-74
2023/05/12 00:08:54;;;;;;;9.50;8.10;;;15.30;99.90;;;;;;5000289;28;20301;-76
2023/05/12 00:11:20;;;;;;;9.00;7.23;;;15.30;99.90;;;;;;4999345;28;20181;-74
2023/05/12 00:13:46;;;;;;;12.23;9.07;;;15.30;99.90;;;;;;4999164;28;20217;-74
2023/05/12 00:16:12;;;;;;;10.00;8.07;;;15.30;99.90;;;;;;5017559;28;20623;-74
2023/05/12 00:18:38;;;;;;;11.20;8.60;;;15.30;99.90;;;;;;5016858;28;20551;-74
2023/05/12 00:21:03;;;;;;;12.73;10.40;;;15.30;99.90;;;;;;5013501;28;20681;-74
2023/05/12 00:23:29;;;;;;;13.17;11.10;;;15.30;99.90;;;;;;4996843;28;20198;-74
2023/05/12 00:25:55;;;;;;;14.80;10.47;;;15.30;99.90;;;;;;4997691;28;20696;-74
2023/05/12 00:28:20;;;;;;;16.57;11.87;;;15.30;99.90;;;;;;4978510;28;20559;-74
2023/05/12 00:30:46;;;;;;;16.30;13.80;;;15.30;99.90;;;;;;4977033;28;20167;-74
2023/05/12 00:33:12;;;;;;;16.10;13.20;;;15.40;99.90;;;;;;4976309;28;20199;-74
2023/05/12 00:35:37;;;;;;;17.67;12.97;;;15.30;99.90;;;;;;4976898;28;20179;-74
2023/05/12 00:38:03;;;;;;;14.70;12.97;;;15.40;99.90;;;;;;4999185;28;20665;-74
2023/05/12 00:40:29;;;;;;;15.17;13.57;;;15.40;99.90;;;;;;4994111;28;20175;-74
2023/05/12 00:42:54;;;;;;;17.77;14.50;;;15.40;99.90;;;;;;4960265;28;20191;-74
2023/05/12 00:45:21;;;;;;;17.87;13.70;;;15.50;99.90;;;;;;4960364;28;20175;-74
2023/05/12 00:47:46;;;;;;;15.53;13.87;;;15.50;99.90;;;;;;4994232;28;20509;-74
2023/05/12 00:50:13;;;;;;;15.90;14.20;;;15.50;99.90;;;;;;4976494;28;20725;-73
2023/05/12 00:52:39;;;;;;;18.93;13.00;;;15.50;99.90;;;;;;4967633;28;20614;-73
2023/05/12 00:55:05;;;;;;;18.27;13.90;;;15.50;99.90;;;;;;4986942;28;21121;-73
2023/05/12 00:57:32;;;;;;;18.37;14.90;;;15.60;99.90;;;;;;5001233;28;20589;-73
2023/05/12 00:59:58;;;;;;;20.27;15.63;;;15.60;99.90;;;;;;4988342;28;20594;-74
2023/05/12 01:02:24;;;;;;;19.17;14.70;;;15.60;99.90;;;;;;4974862;28;20679;-74
2023/05/12 01:05:09;;;;;;;16.37;13.67;;;15.60;99.90;;;;;;5006200;23;21238;-74
2023/05/12 01:07:35;;;;;;;17.90;14.17;;;15.60;99.90;;;;;;4955298;28;20641;-75
2023/05/12 01:10:01;;;;;;;18.57;13.17;;;15.60;99.90;;;;;;4990693;28;21236;-74
2023/05/12 01:12:32;;;;;;;16.40;13.70;;;15.60;99.90;;;;;;4939080;28;20594;-74
2023/05/12 01:14:58;;;;;;;15.50;12.80;;;15.60;99.90;;;;;;4979209;28;21033;-74
2023/05/12 01:17:31;;;;;;;17.03;13.67;;;15.60;99.90;;;;;;4995707;28;20628;-75
2023/05/12 01:20:00;;;;;;;14.87;12.33;;;15.60;99.90;;;;;;4995381;28;20631;-75
2023/05/12 01:22:30;;;;;;;15.70;13.37;;;15.60;99.90;;;;;;4992277;28;20588;-75
2023/05/12 01:24:58;;;;;;;15.67;12.67;;;15.60;99.90;;;;;;4979031;28;20601;-75
2023/05/12 01:27:26;;;;;;;14.93;12.70;;;15.60;99.90;;;;;;4978876;28;20581;-75
2023/05/12 01:29:57;;;;;;;13.57;11.93;;;15.50;99.90;;;;;;4995032;28;20628;-74
2023/05/12 01:32:23;;;;;;;16.63;11.90;;;15.60;99.90;;;;;;4978285;28;20731;-75
2023/05/12 01:34:52;;;;;;;15.20;12.20;;;15.60;99.90;;;;;;5011666;28;20613;-74
2023/05/12 01:37:19;;;;;;;15.33;11.33;;;15.60;99.90;;;;;;4994966;28;20918;-75
2023/05/12 01:39:45;;;;;;;18.20;12.13;;;15.60;99.90;;;;;;4994594;28;20628;-75
2023/05/12 01:42:16;;;;;;;14.67;10.97;;;15.60;99.90;;;;;;4979428;28;20581;-75
2023/05/12 01:44:42;;;;;;;14.50;11.73;;;15.50;99.90;;;;;;4978434;28;20613;-75
2023/05/12 01:47:10;;;;;;;13.27;11.67;;;15.50;99.90;;;;;;4994802;28;20659;-74
2023/05/12 01:49:37;;;;;;;13.77;10.87;;;15.50;99.90;;;;;;4991286;28;20211;-75
2023/05/12 01:52:05;;;;;;;14.67;12.13;;;15.50;99.90;;;;;;4991127;28;20579;-74
2023/05/12 01:54:30;;;;;;;11.20;8.90;;;15.50;99.90;;;;;;4974733;28;20617;-75
2023/05/12 01:56:56;;;;;;;12.60;10.50;;;15.50;99.90;;;;;;4991631;28;21133;-75
2023/05/12 01:59:23;;;;;;;13.40;10.50;;;15.40;99.90;;;;;;4974786;28;20278;-75
2023/05/12 02:01:48;;;;;;;14.23;10.33;;;15.40;99.90;;;;;;4974921;28;20582;-75
2023/05/12 02:04:20;;;;;;;14.70;11.80;;;15.50;99.90;;;;;;4991001;28;20201;-75
2023/05/12 02:06:47;;;;;;;12.30;10.77;;;15.50;99.90;;;;;;4958827;28;21119;-74
2023/05/12 02:09:12;;;;;;;13.13;10.03;;;15.50;99.90;;;;;;4992167;28;20655;-74
2023/05/12 02:11:39;;;;;;;13.10;10.93;;;15.50;99.90;;;;;;4974837;28;20211;-74
2023/05/12 02:14:05;;;;;;;12.60;10.90;;;15.50;99.90;;;;;;4974821;28;21160;-74
2023/05/12 02:16:31;;;;;;;11.70;10.00;;;15.60;99.90;;;;;;4974501;28;20610;-74
2023/05/12 02:18:57;;;;;;;12.93;11.07;;;15.60;99.90;;;;;;4975163;28;20594;-74
2023/05/12 02:21:23;;;;;;;15.77;11.13;;;15.60;99.90;;;;;;4977167;28;20190;-74
2023/05/12 02:23:50;;;;;;;11.07;9.77;;;15.60;99.90;;;;;;5005341;28;20186;-74
2023/05/12 02:26:17;;;;;;;11.83;10.30;;;15.60;99.90;;;;;;4993912;28;20609;-74
2023/05/12 02:28:43;;;;;;;11.03;9.60;;;15.60;99.90;;;;;;5010514;28;20562;-74
2023/05/12 02:31:08;;;;;;;14.33;10.93;;;15.60;99.90;;;;;;5010072;28;20581;-74
2023/05/12 02:33:34;;;;;;;10.83;9.73;;;15.70;99.90;;;;;;5010190;28;20171;-74
2023/05/12 02:36:00;;;;;;;12.07;10.77;;;15.70;99.90;;;;;;5009872;28;20194;-74
2023/05/12 02:38:26;;;;;;;13.53;11.40;;;15.70;99.90;;;;;;5010372;28;20543;-74
2023/05/12 02:40:52;;;;;;;12.83;10.53;;;15.70;99.90;;;;;;5010296;28;20693;-75
2023/05/12 02:43:18;;;;;;;13.23;11.67;;;15.70;99.90;;;;;;5009754;28;20232;-75
2023/05/12 02:45:44;;;;;;;14.87;11.83;;;15.70;99.90;;;;;;4993974;28;20625;-75
2023/05/12 02:48:10;;;;;;;13.47;11.20;;;15.70;99.90;;;;;;5009764;28;20592;-75
2023/05/12 02:50:35;;;;;;;12.50;10.27;;;15.70;99.90;;;;;;4993813;28;20178;-75
2023/05/12 02:53:01;;;;;;;12.13;10.10;;;15.70;99.90;;;;;;5008628;28;20643;-75
2023/05/12 02:55:28;;;;;;;11.30;10.20;;;15.70;99.90;;;;;;5010145;28;20194;-75
2023/05/12 02:57:55;;;;;;;11.70;10.13;;;15.70;99.90;;;;;;5009877;28;20183;-75
2023/05/12 03:00:20;;;;;;;12.43;11.13;;;15.70;99.90;;;;;;5010195;28;20624;-75
2023/05/12 03:02:46;;;;;;;12.00;10.77;;;15.70;99.90;;;;;;5009308;28;20626;-75
2023/05/12 03:05:12;;;;;;;12.30;11.00;;;15.70;99.90;;;;;;5010103;28;20657;-75
2023/05/12 03:07:38;;;;;;;10.97;9.83;;;15.70;99.90;;;;;;5009896;28;20649;-75
2023/05/12 03:10:05;;;;;;;10.60;9.50;;;15.70;99.90;;;;;;5009957;28;21239;-75
2023/05/12 03:12:30;;;;;;;10.27;9.33;;;15.70;99.90;;;;;;5009689;28;20581;-75
2023/05/12 03:14:57;;;;;;;10.07;8.77;;;15.70;99.90;;;;;;4993179;28;20620;-75
2023/05/12 03:17:23;;;;;;;10.93;9.60;;;15.70;99.90;;;;;;5008639;28;21049;-75
2023/05/12 03:19:49;;;;;;;12.47;10.43;;;15.70;99.90;;;;;;4993047;28;20626;-75
2023/05/12 03:22:16;;;;;;;11.60;9.90;;;15.70;99.90;;;;;;4992984;28;20689;-75
2023/05/12 03:24:42;;;;;;;10.77;9.40;;;15.70;99.90;;;;;;4998045;28;20723;-75
2023/05/12 03:27:08;;;;;;;12.23;10.93;;;15.70;99.90;;;;;;5005141;28;20591;-75
2023/05/12 03:29:34;;;;;;;9.67;8.07;;;15.70;99.90;;;;;;4996220;28;20643;-75
2023/05/12 03:31:59;;;;;;;9.00;8.10;;;15.60;99.90;;;;;;5012978;28;20608;-75
2023/05/12 03:34:25;;;;;;;9.07;8.17;;;15.60;99.90;;;;;;4996232;28;20186;-75
2023/05/12 03:36:51;;;;;;;8.10;6.83;;;15.60;99.90;;;;;;4996801;28;20200;-75
2023/05/12 03:39:16;;;;;;;7.37;6.67;;;15.60;99.90;;;;;;4996838;28;20178;-75
2023/05/12 03:41:42;;;;;;;7.73;6.87;;;15.50;99.90;;;;;;5012163;28;20181;-75
2023/05/12 03:44:08;;;;;;;7.77;7.00;;;15.50;99.90;;;;;;5013280;28;20177;-75
2023/05/12 03:46:34;;;;;;;8.77;7.60;;;15.50;99.90;;;;;;5011991;28;20212;-75
2023/05/12 03:49:00;;;;;;;8.00;6.93;;;15.50;99.90;;;;;;4993243;28;20629;-75
2023/05/12 03:51:29;;;;;;;8.00;6.47;;;15.50;99.90;;;;;;5010124;28;20174;-76
2023/05/12 03:53:55;;;;;;;7.53;6.73;;;15.50;99.90;;;;;;5011056;28;21019;-75
2023/05/12 03:56:21;;;;;;;8.30;6.73;;;15.50;99.90;;;;;;4992829;28;20621;-75
2023/05/12 03:58:47;;;;;;;6.60;4.90;;;15.50;99.90;;;;;;4977203;28;20178;-75
2023/05/12 04:01:15;;;;;;;7.73;6.73;;;15.50;99.90;;;;;;4992944;28;20593;-75
2023/05/12 04:03:40;;;;;;;8.80;6.40;;;15.50;99.90;;;;;;4994791;28;20639;-75
2023/05/12 04:06:07;;;;;;;7.43;6.40;;;15.50;99.90;;;;;;4996424;28;20268;-75
2023/05/12 04:08:35;;;;;;;6.73;5.23;;;15.50;99.90;;;;;;4980664;28;20632;-75
2023/05/12 04:11:01;;;;;;;6.00;4.80;;;15.40;99.90;;;;;;4980634;28;20632;-75
2023/05/12 04:13:28;;;;;;;5.40;4.90;;;15.40;99.90;;;;;;5013343;28;20178;-75
2023/05/12 04:15:55;;;;;;;3.70;2.90;;;15.40;99.90;;;;;;4980299;28;20648;-75
2023/05/12 04:18:23;;;;;;;6.30;4.27;;;15.40;99.90;;;;;;5013658;28;20613;-75
2023/05/12 04:20:48;;;;;;;4.27;3.27;;;15.30;99.90;;;;;;4980192;28;20589;-75
2023/05/12 04:23:14;;;;;;;4.07;3.33;;;15.30;99.90;;;;;;4995967;28;20582;-75
2023/05/12 04:25:41;;;;;;;2.47;2.27;;;15.20;99.90;;;;;;4996551;28;20662;-75
2023/05/12 04:28:08;;;;;;;3.57;3.00;;;15.20;99.90;;;;;;4980074;28;20588;-75
2023/05/12 04:30:35;;;;;;;3.67;2.40;;;15.10;99.90;;;;;;4996408;28;20636;-75
2023/05/12 04:33:00;;;;;;;3.03;2.50;;;15.10;99.90;;;;;;4979386;28;21399;-75
2023/05/12 04:35:27;;;;;;;3.67;2.27;;;15.00;99.90;;;;;;5013917;28;20609;-75
2023/05/12 04:37:53;;;;;;;4.70;1.90;;;15.00;99.90;;;;;;5013939;28;20668;-75
2023/05/12 04:40:19;;;;;;;3.60;2.67;;;15.00;99.90;;;;;;4979937;28;21038;-75
2023/05/12 04:42:45;;;;;;;2.50;2.30;;;15.00;99.90;;;;;;5012098;28;21215;-75
2023/05/12 04:45:12;;;;;;;4.80;2.47;;;15.00;99.90;;;;;;4979624;28;20620;-75
2023/05/12 04:47:37;;;;;;;1.90;1.60;;;15.00;99.90;;;;;;5013733;28;20651;-75
2023/05/12 04:50:04;;;;;;;2.73;2.17;;;15.10;99.90;;;;;;4995853;28;20305;-75
2023/05/12 04:52:30;;;;;;;2.70;2.30;;;15.00;99.90;;;;;;5013658;28;20234;-75
2023/05/12 04:54:56;;;;;;;2.97;1.90;;;15.10;99.90;;;;;;4995967;28;20620;-75
2023/05/12 04:57:22;;;;;;;3.20;2.40;;;15.10;99.90;;;;;;4996250;28;20581;-75
2023/05/12 04:59:49;;;;;;;2.37;1.77;;;15.10;99.90;;;;;;4995751;28;20236;-75
2023/05/12 05:02:15;;;;;;;3.90;2.30;;;15.10;99.90;;;;;;4995587;28;20608;-75
2023/05/12 05:04:41;;;;;;;4.67;2.30;;;15.20;99.90;;;;;;4995386;28;20178;-75
2023/05/12 05:07:07;;;;;;;2.97;2.47;;;15.20;99.90;;;;;;4995921;28;20600;-74
2023/05/12 05:09:32;;;;;;;3.83;2.17;;;15.20;99.90;;;;;;4995509;28;21353;-74
2023/05/12 05:11:58;;;;;;;4.07;2.30;;;15.20;99.90;;;;;;4978554;28;20606;-75
2023/05/12 05:14:24;;;;;;;3.93;2.00;;;15.30;99.90;;;;;;4994456;28;20238;-75
2023/05/12 05:16:52;;;;;;;3.30;1.63;;;15.30;99.90;;;;;;4995342;28;20720;-75
2023/05/12 05:19:18;;;;;;;3.23;1.80;;;15.30;99.90;;;;;;4995662;28;20574;-75
2023/05/12 05:21:44;;;;;;;2.23;1.97;;;15.30;99.90;;;;;;4994427;28;20913;-75
2023/05/12 05:24:10;;;;;;;2.27;1.80;;;15.40;99.90;;;;;;4995988;28;20190;-75
2023/05/12 05:26:36;;;;;;;2.33;1.70;;;15.40;99.90;;;;;;4978730;28;20605;-75
2023/05/12 05:29:03;;;;;;;5.17;1.90;;;15.40;99.90;;;;;;4995409;28;20689;-75
2023/05/12 05:31:29;;;;;;;2.10;1.50;;;15.50;99.90;;;;;;4994636;28;20585;-75
2023/05/12 05:33:56;;;;;;;2.53;1.50;;;15.50;99.90;;;;;;4995522;28;20970;-74
2023/05/12 05:36:26;;;;;;;2.00;1.60;;;15.50;99.90;;;;;;4995020;28;20608;-74
2023/05/12 05:38:52;;;;;;;2.37;1.83;;;15.50;99.90;;;;;;4978969;28;20577;-75
2023/05/12 05:41:20;;;;;;;3.30;1.53;;;15.50;99.90;;;;;;4995100;28;20984;-75
2023/05/12 05:43:46;;;;;;;9.03;3.50;;;15.50;99.90;;;;;;4978492;28;20605;-75
2023/05/12 05:46:12;;;;;;;2.13;1.60;;;15.50;99.90;;;;;;4995111;28;20656;-75
2023/05/12 05:48:37;;;;;;;2.90;1.90;;;15.50;99.90;;;;;;4962155;28;20657;-76
2023/05/12 05:51:05;;;;;;;2.67;2.03;;;15.60;99.90;;;;;;4978729;28;20605;-76
2023/05/12 05:53:31;;;;;;;2.30;1.70;;;15.60;99.90;;;;;;4978379;28;20178;-81
2023/05/12 05:55:57;;;;;;;2.43;1.57;;;15.60;99.90;;;;;;5002107;28;21015;-81
2023/05/12 05:58:23;;;;;;;2.57;1.77;;;15.60;99.90;;;;;;4989501;28;20236;-77
2023/05/12 06:00:49;;;;;;;2.10;1.40;;;15.60;99.90;;;;;;5014573;28;20650;-76
2023/05/12 06:03:15;;;;;;;3.57;1.97;;;15.70;99.90;;;;;;5014017;28;20182;-81
2023/05/12 06:05:42;;;;;;;2.27;1.90;;;15.70;99.90;;;;;;5013336;28;20628;-81
2023/05/12 06:08:12;;;;;;;1.70;1.43;;;15.80;99.90;;;;;;5000495;28;20578;-81
2023/05/12 06:10:38;;;;;;;2.83;1.90;;;15.80;99.90;;;;;;5014014;28;20636;-81
2023/05/12 06:13:03;;;;;;;2.43;1.97;;;15.90;99.90;;;;;;4997321;28;20577;-81
2023/05/12 06:15:29;;;;;;;2.37;1.63;;;16.00;99.90;;;;;;5013766;28;20615;-81
2023/05/12 06:17:55;;;;;;;3.30;2.20;;;16.00;99.90;;;;;;5031935;28;20627;-82
2023/05/12 06:20:22;;;;;;;6.80;1.87;;;16.10;99.90;;;;;;5031411;28;20661;-81
2023/05/12 06:22:48;;;;;;;3.20;1.93;;;16.10;99.90;;;;;;5019503;28;20197;-81
2023/05/12 06:25:15;;;;;;;1.80;1.50;;;16.10;99.90;;;;;;4994182;28;20605;-81
2023/05/12 06:27:41;;;;;;;2.77;1.93;;;16.20;99.90;;;;;;5011970;28;20587;-81
2023/05/12 06:30:08;;;;;;;2.60;1.80;;;16.20;99.90;;;;;;4993986;28;20240;-82
2023/05/12 06:32:34;;;;;;;2.00;1.70;;;16.30;99.90;;;;;;5010333;28;20178;-80
2023/05/12 06:34:59;;;;;;;2.20;1.70;;;16.40;99.90;;;;;;4994068;28;20640;-81
2023/05/12 06:37:26;;;;;;;2.30;1.70;;;16.50;99.90;;;;;;4977934;28;20174;-81
2023/05/12 06:39:52;;;;;;;2.57;2.03;;;16.60;99.90;;;;;;4995248;28;21105;-83
2023/05/12 06:42:17;;;;;;;1.87;1.50;;;16.90;99.90;;;;;;4994111;28;20605;-81
2023/05/12 06:44:50;;;;;;;2.83;1.70;;;17.50;99.90;;;;;;4998503;28;20220;-81
2023/05/12 06:47:18;;;;;;;3.80;1.63;;;17.90;99.90;;;;;;4994012;28;20578;-82
2023/05/12 06:49:45;;;;;;;3.90;1.50;;;18.40;99.90;;;;;;4994854;28;21489;-82
2023/05/12 06:52:15;;;;;;;2.10;1.60;;;18.70;99.90;;;;;;5011042;28;20554;-81
2023/05/12 06:54:42;;;;;;;1.83;1.47;;;18.90;99.90;;;;;;4994269;28;20568;-83
2023/05/12 06:57:08;;;;;;;2.50;1.53;;;19.00;99.90;;;;;;4993826;28;20664;-82
2023/05/12 06:59:34;;;;;;;2.67;1.43;;;18.90;99.90;;;;;;4994041;28;20184;-82
2023/05/12 07:02:00;;;;;;;2.37;1.20;;;18.80;99.90;;;;;;4993456;28;20607;-82
2023/05/12 07:04:26;;;;;;;2.73;1.80;;;18.80;99.90;;;;;;5011207;28;20639;-74
2023/05/12 07:06:52;;;;;;;4.73;1.90;;;18.90;99.90;;;;;;5011193;28;20577;-75
2023/05/12 07:09:18;;;;;;;2.50;1.47;;;18.90;99.90;;;;;;5011126;28;20205;-74
2023/05/12 07:11:44;;;;;;;3.50;1.90;;;19.10;99.90;;;;;;5011217;28;20182;-75
2023/05/12 07:14:10;;;;;;;2.50;1.60;;;19.40;99.90;;;;;;4993008;28;20914;-75
2023/05/12 07:16:36;;;;;;;2.23;1.30;;;19.50;99.90;;;;;;4993657;28;20241;-74
2023/05/12 07:19:04;;;;;;;2.00;1.50;;;19.90;99.90;;;;;;4993459;28;20612;-75
2023/05/12 07:21:30;;;;;;;2.23;1.77;;;20.30;99.90;;;;;;4991211;28;20664;-74
2023/05/12 07:23:56;;;;;;;3.90;1.80;;;20.70;99.90;;;;;;5010761;28;20577;-75
2023/05/12 07:26:23;;;;;;;2.67;1.30;;;20.70;99.90;;;;;;5011242;28;21191;-75
2023/05/12 07:28:48;;;;;;;2.10;1.50;;;20.60;99.90;;;;;;4993142;28;20561;-75
2023/05/12 07:31:14;;;;;;;1.70;1.37;;;20.40;99.90;;;;;;5011085;28;20577;-75
2023/05/12 07:33:40;;;;;;;1.70;1.20;;;20.20;99.90;;;;;;5010448;28;20600;-75
2023/05/12 07:36:07;;;;;;;3.50;1.70;;;20.00;99.90;;;;;;4993512;28;20616;-75
2023/05/12 07:38:34;;;;;;;3.30;1.40;;;19.90;99.90;;;;;;4995591;28;20209;-76
2023/05/12 07:41:00;;;;;;;1.63;1.17;;;19.70;99.90;;;;;;5014605;28;20599;-75
2023/05/12 07:43:26;;;;;;;1.70;1.30;;;19.60;99.90;;;;;;5014484;28;20581;-75
2023/05/12 07:45:53;;;;;;;2.20;1.60;;;19.40;99.90;;;;;;5014364;28;20624;-75
2023/05/12 07:48:19;;;;;;;3.17;1.60;;;19.30;99.90;;;;;;4997259;28;20185;-75
2023/05/12 07:50:44;;;;;;;2.07;1.50;;;19.20;99.90;;;;;;4996589;28;20624;-75
2023/05/12 07:53:10;;;;;;;2.40;1.60;;;19.10;99.90;;;;;;5013200;28;20209;-75
2023/05/12 07:55:36;;;;;;;3.03;1.37;;;19.10;99.90;;;;;;5014414;28;20186;-75
2023/05/12 07:58:01;;;;;;;2.77;1.47;;;19.00;99.90;;;;;;4997210;28;20261;-75
2023/05/12 08:00:27;;;;;;;1.70;1.10;;;18.90;99.90;;;;;;4996187;28;20554;-74
2023/05/12 08:02:53;;;;;;;6.83;1.30;;;18.80;99.90;;;;;;4996606;28;20701;-75
2023/05/12 08:05:19;;;;;;;2.13;1.20;;;18.80;99.90;;;;;;5014445;28;20209;-74
2023/05/12 08:07:46;;;;;;;3.10;1.47;;;18.80;99.90;;;;;;4996631;28;20225;-75
2023/05/12 08:10:12;;;;;;;2.40;1.50;;;18.70;99.90;;;;;;5014423;28;20659;-74
2023/05/12 08:12:39;;;;;;;2.53;1.10;;;18.70;99.90;;;;;;4996033;28;20577;-75
2023/05/12 08:15:06;;;;;;;3.97;1.30;;;18.80;99.90;;;;;;5014222;28;20600;-75
2023/05/12 08:17:31;;;;;;;2.00;1.40;;;19.00;99.90;;;;;;5014012;28;20584;-74
2023/05/12 08:19:57;;;;;;;2.10;1.07;;;19.20;99.90;;;;;;5014284;28;20573;-74
2023/05/12 08:22:23;;;;;;;2.10;0.90;;;19.40;99.90;;;;;;4995745;28;20174;-74
2023/05/12 08:24:48;;;;;;;1.67;1.00;;;19.70;99.90;;;;;;5012938;28;20213;-75
2023/05/12 08:27:14;;;;;;;1.90;1.10;;;20.00;99.90;;;;;;5012558;28;20174;-75
2023/05/12 08:29:41;;;;;;;1.70;1.00;;;20.00;99.90;;;;;;5013992;28;20217;-75
2023/05/12 08:32:06;;;;;;;1.60;0.90;;;20.10;99.90;;;;;;5013191;28;20628;-75
2023/05/12 08:34:32;;;;;;;1.77;1.10;;;20.10;99.90;;;;;;5014045;28;20171;-75
2023/05/12 08:36:58;;;;;;;1.60;1.10;;;20.10;99.90;;;;;;5014112;28;20198;-74
2023/05/12 08:39:24;;;;;;;1.70;0.90;;;20.10;99.90;;;;;;4995985;28;20190;-75
2023/05/12 08:41:55;;;;;;;1.80;1.10;;;20.20;99.90;;;;;;5013556;28;20185;-75
2023/05/12 08:44:22;;;;;;;1.60;0.90;;;20.20;99.90;;;;;;5013537;28;20600;-75
2023/05/12 08:46:48;;;;;;;2.43;1.00;;;20.20;99.90;;;;;;4996108;28;20613;-75
2023/05/12 08:49:16;;;;;;;2.43;0.80;;;20.30;99.90;;;;;;5012246;28;20720;-75
2023/05/12 08:51:44;;;;;;;2.30;1.00;;;20.40;99.90;;;;;;5013156;28;20595;-75
2023/05/12 08:54:12;;;;;;;1.50;0.80;;;20.60;99.90;;;;;;4995741;28;20726;-75
2023/05/12 08:56:38;;;;;;;1.60;0.83;;;20.80;99.90;;;;;;5013084;28;21056;-75
2023/05/12 08:59:05;;;;;;;1.40;0.83;;;21.00;99.90;;;;;;4995315;28;20589;-75
2023/05/12 09:01:33;;;;;;;2.37;1.20;;;21.20;99.90;;;;;;4995670;28;21434;-75
2023/05/12 09:03:59;;;;;;;1.60;0.70;;;21.50;99.90;;;;;;4995384;28;20581;-75
2023/05/12 09:06:25;;;;;;;4.37;1.07;;;21.70;99.90;;;;;;4995642;28;21000;-74
2023/05/12 09:08:51;;;;;;;1.67;0.97;;;21.70;99.90;;;;;;4995819;28;20238;-74
2023/05/12 09:11:18;;;;;;;2.10;1.10;;;21.80;99.90;;;;;;4995110;28;20209;-75
2023/05/12 09:14:07;;;;;;;2.20;1.00;;;21.90;99.90;;;;;;5012962;28;20171;-75
2023/05/12 09:16:38;;;;;;;2.83;1.20;;;22.10;99.90;;;;;;4995088;28;20633;-75
2023/05/12 09:19:04;;;;;;;1.80;1.20;;;22.20;99.90;;;;;;5013275;28;20660;-75
2023/05/12 09:21:31;;;;;;;3.20;1.00;;;22.30;99.90;;;;;;5012156;28;20592;-75
2023/05/12 09:24:04;;;;;;;1.60;0.90;;;22.50;99.90;;;;;;4979427;28;20681;-75
2023/05/12 09:26:31;;;;;;;1.60;0.80;;;22.80;99.90;;;;;;4994584;28;20708;-75
2023/05/12 09:29:05;;;;;;;1.60;0.80;;;23.20;99.90;;;;;;4995207;28;20656;-75
2023/05/12 09:31:31;;;;;;;1.70;0.90;;;23.40;99.90;;;;;;5011996;28;20601;-75
2023/05/12 09:33:57;;;;;;;2.77;1.00;;;23.60;99.90;;;;;;5013009;28;20990;-75
2023/05/12 09:36:24;;;;;;;2.07;0.90;;;23.60;99.90;;;;;;4994838;28;20206;-76
2023/05/12 09:39:05;;;;;;;1.83;0.87;;;23.70;99.90;;;;;;4995327;28;20684;-75
2023/05/12 09:41:35;;;;;;;1.93;0.80;;;23.70;99.90;;;;;;5012057;28;20604;-76
2023/05/12 09:44:01;;;;;;;1.47;0.83;;;23.90;99.90;;;;;;4995158;28;20655;-75
2023/05/12 09:46:26;;;;;;;2.17;1.10;;;24.00;99.90;;;;;;4994841;28;20640;-75
2023/05/12 09:48:55;;;;;;;1.47;0.80;;;24.00;99.90;;;;;;4995003;28;20633;-75
2023/05/12 09:51:22;;;;;;;1.70;0.80;;;24.00;99.90;;;;;;5012316;28;20213;-84
2023/05/12 09:53:48;;;;;;;1.80;1.17;;;23.90;99.90;;;;;;4994569;28;20668;-84
2023/05/12 09:56:15;;;;;;;1.70;1.00;;;24.00;99.90;;;;;;5003574;28;20728;-78
2023/05/12 09:58:43;;;;;;;2.30;0.90;;;24.00;99.90;;;;;;5007453;28;20592;-78
2023/05/12 10:01:11;;;;;;;2.93;1.17;;;24.10;99.90;;;;;;5031719;28;20579;-78
2023/05/12 10:03:41;;;;;;;2.20;1.37;;;24.20;99.90;;;;;;5013796;28;21031;-78
2023/05/12 10:06:11;;;;;;;2.73;0.90;;;24.50;99.90;;;;;;5014275;28;20620;-78
2023/05/12 10:08:44;;;;;;;2.53;0.87;;;24.80;99.90;;;;;;5031447;28;20932;-78
2023/05/12 10:11:10;;;;;;;1.93;1.00;;;25.00;99.90;;;;;;5014187;28;20593;-78
2023/05/12 10:13:37;;;;;;;2.93;1.00;;;25.30;99.90;;;;;;5031210;28;21048;-78
2023/05/12 10:16:04;;;;;;;2.63;1.00;;;25.80;99.90;;;;;;5014004;28;20600;-78
2023/05/12 10:18:32;;;;;;;1.60;1.00;;;26.20;99.90;;;;;;5013872;28;20567;-78
2023/05/12 10:21:01;;;;;;;1.80;1.10;;;26.80;99.90;;;;;;4978442;28;20640;-78
2023/05/12 10:23:27;;;;;;;1.87;1.10;;;27.20;99.90;;;;;;5011637;28;20643;-78
2023/05/12 10:26:00;;;;;;;1.90;1.40;;;27.50;99.90;;;;;;4994053;28;20616;-79
2023/05/12 10:28:27;;;;;;;2.13;0.90;;;27.80;99.90;;;;;;5012153;28;20627;-78
2023/05/12 10:30:55;;;;;;;3.50;1.10;;;28.10;99.90;;;;;;5011499;28;20494;-78
2023/05/12 10:33:20;;;;;;;1.83;0.93;;;28.40;99.10;;;;;;4962001;28;20183;-79
2023/05/12 10:35:47;;;;;;;2.93;0.90;;;28.70;99.90;;;;;;4993872;28;20671;-78
2023/05/12 10:38:20;;;;;;;3.33;0.90;;;28.80;97.70;;;;;;4994189;28;20174;-79
2023/05/12 10:40:58;;;;;;;4.07;0.80;;;28.70;95.10;;;;;;4993949;28;21120;-79
2023/05/12 10:43:31;;;;;;;2.70;1.53;;;28.60;93.80;;;;;;4993886;28;20679;-79
2023/05/12 10:46:12;;;;;;;1.60;0.83;;;28.60;95.60;;;;;;5011369;28;20601;-79
2023/05/12 10:48:48;;;;;;;1.50;0.90;;;28.70;92.90;;;;;;4993522;28;20624;-79
2023/05/12 10:51:25;;;;;;;1.70;0.97;;;28.50;90.10;;;;;;5011634;28;20586;-79
2023/05/12 10:53:52;;;;;;;1.67;1.10;;;28.70;93.60;;;;;;5010118;28;20684;-79
2023/05/12 10:56:27;;;;;;;1.70;0.97;;;28.80;95.60;;;;;;5011102;28;20719;-79
2023/05/12 10:59:16;;;;;;;1.80;0.70;;;28.60;90.90;;;;;;5010516;28;20586;-78
2023/05/12 11:01:57;;;;;;;2.03;1.10;;;28.50;93.10;;;;;;5009725;28;20650;-78
2023/05/12 11:04:33;;;;;;;3.20;0.87;;;28.00;89.60;;;;;;5011945;28;20609;-78
2023/05/12 11:06:59;;;;;;;1.90;1.00;;;27.60;90.60;;;;;;5009973;28;20685;-79
2023/05/12 11:09:25;;;;;;;1.80;0.97;;;27.20;92.30;;;;;;5010051;28;20672;-78
2023/05/12 11:11:51;;;;;;;2.20;1.07;;;27.00;92.50;;;;;;5009137;28;20293;-79
2023/05/12 11:14:17;;;;;;;2.60;1.20;;;26.60;92.00;;;;;;5008781;28;20715;-78
2023/05/12 11:16:44;;;;;;;2.70;1.17;;;26.10;90.00;;;;;;5009881;28;20751;-78
2023/05/12 11:19:10;;;;;;;1.70;1.03;;;25.90;90.80;;;;;;4977130;28;20928;-78
2023/05/12 11:21:36;;;;;;;3.10;1.00;;;25.70;92.40;;;;;;5010640;28;20581;-78
2023/05/12 11:24:02;;;;;;;1.70;1.00;;;25.60;92.60;;;;;;4993044;28;20679;-77
2023/05/12 11:26:29;;;;;;;1.90;0.90;;;25.30;92.80;;;;;;4993617;28;20645;-78
2023/05/12 11:28:58;;;;;;;1.90;1.00;;;25.30;93.60;;;;;;4993010;28;20198;-78
2023/05/12 11:31:24;;;;;;;2.10;1.37;;;25.20;92.10;;;;;;4993036;28;20590;-78
2023/05/12 11:34:04;;;;;;;2.83;0.83;;;25.30;94.70;;;;;;4976930;28;20636;-78
2023/05/12 11:36:41;;;;;;;1.80;1.10;;;25.30;94.30;;;;;;4992823;28;20743;-78
2023/05/12 11:39:14;;;;;;;2.60;1.27;;;25.50;92.60;;;;;;4993045;28;20169;-78
2023/05/12 11:41:40;;;;;;;1.80;1.00;;;25.60;94.10;;;;;;4993214;28;20588;-78
2023/05/12 11:44:26;;;;;;;2.17;0.93;;;25.90;95.20;;;;;;4976483;28;20602;-78
2023/05/12 11:47:02;;;;;;;1.47;0.87;;;26.20;96.20;;;;;;5011046;28;20181;-78
2023/05/12 11:49:29;;;;;;;4.53;0.80;;;26.40;94.40;;;;;;4992902;28;20687;-78
2023/05/12 11:52:01;;;;;;;2.10;0.80;;;26.60;94.90;;;;;;4993024;28;20589;-78
2023/05/12 11:54:30;;;;;;;3.23;0.93;;;26.90;93.90;;;;;;5010673;28;20651;-78
2023/05/12 11:56:56;;;;;;;1.50;0.90;;;27.30;96.30;;;;;;5010919;28;20569;-78
2023/05/12 11:59:32;;;;;;;1.53;0.97;;;27.80;97.00;;;;;;4992975;28;20591;-78
2023/05/12 12:02:01;;;;;;;1.70;1.07;;;28.30;96.20;;;;;;4993024;28;20577;-78
2023/05/12 12:04:35;;;;;;;1.70;0.87;;;28.70;94.10;;;;;;5010578;28;20582;-78
2023/05/12 12:07:02;;;;;;;2.20;1.00;;;28.70;92.40;;;;;;4993237;28;20627;-78
2023/05/12 12:09:35;;;;;;;2.30;1.10;;;28.70;91.60;;;;;;5010674;28;20943;-78
2023/05/12 12:12:03;;;;;;;5.10;1.30;;;28.60;90.00;;;;;;4992411;28;20969;-78
2023/05/12 12:14:33;;;;;;;2.00;0.90;;;28.60;89.10;;;;;;5010630;28;20581;-78
2023/05/12 12:16:59;;;;;;;2.03;0.97;;;28.50;87.40;;;;;;4992763;28;20581;-78
2023/05/12 12:19:27;;;;;;;1.73;0.80;;;28.40;86.90;;;;;;4993222;28;20590;-78
2023/05/12 12:21:57;;;;;;;1.90;0.93;;;28.30;83.40;;;;;;4992037;28;20617;-78
2023/05/12 12:24:24;;;;;;;1.60;0.97;;;28.00;74.70;;;;;;5012249;28;20589;-78
2023/05/12 12:26:50;;;;;;;1.70;1.00;;;27.70;81.40;;;;;;4996166;28;20600;-78
2023/05/12 12:29:16;;;;;;;2.00;1.20;;;27.60;81.80;;;;;;5014173;28;20619;-78
2023/05/12 12:31:42;;;;;;;5.73;1.10;;;27.20;75.20;;;;;;4995924;28;20179;-78
2023/05/12 12:34:09;;;;;;;2.03;0.93;;;26.80;77.30;;;;;;5012705;28;20593;-78
2023/05/12 12:36:34;;;;;;;1.87;1.07;;;26.50;78.70;;;;;;5003678;28;20729;-78
2023/05/12 12:39:01;;;;;;;1.77;1.07;;;26.30;79.40;;;;;;5029670;28;21344;-78
2023/05/12 12:41:27;;;;;;;1.70;0.93;;;26.10;79.80;;;;;;4998358;28;20193;-78
2023/05/12 12:43:53;;;;;;;1.50;0.90;;;26.00;81.50;;;;;;4995929;28;20608;-78